Time;durP1;ratioP1;P1;durP2;ratioP2;P2;SDS_P1;SDS_P2;PMS_P1;PMS_P2;Temp;Humidity;BMP_temperature;BMP_pressure;BME280_temperature;BME280_humidity;BME280_pressure;Samples;Min_cycle;Max_cycle;Signal;HPM_P1;HPM_P2
2023/09/14 00:01:12;;;;;;;0.10;0.10;;;;;;;12.14;100.00;97096.94;5003744;28;20335;-78
2023/09/14 00:03:57;;;;;;;0.10;0.10;;;;;;;12.12;100.00;97089.16;5005690;28;20077;-78
2023/09/14 00:06:44;;;;;;;0.10;0.10;;;;;;;12.09;100.00;97096.88;5004171;28;20049;-78
2023/09/14 00:09:30;;;;;;;0.10;0.10;;;;;;;11.94;100.00;97092.88;5006608;28;20508;-78
2023/09/14 00:12:15;;;;;;;0.10;0.10;;;;;;;11.85;100.00;97097.00;5004811;28;20100;-78
2023/09/14 00:15:01;;;;;;;0.10;0.10;;;;;;;11.70;100.00;97097.50;5003768;28;20048;-78
2023/09/14 00:17:47;;;;;;;0.10;0.10;;;;;;;11.59;100.00;97094.84;5003574;28;20052;-78
2023/09/14 00:20:34;;;;;;;0.10;0.10;;;;;;;11.65;100.00;97099.28;5005893;28;20041;-78
2023/09/14 00:23:20;;;;;;;0.10;0.10;;;;;;;11.65;100.00;97100.09;5002306;28;20342;-78
2023/09/14 00:26:06;;;;;;;0.10;0.10;;;;;;;11.60;100.00;97099.19;5004533;28;20076;-78
2023/09/14 00:28:52;;;;;;;0.10;0.10;;;;;;;11.65;100.00;97097.41;5003548;28;20041;-78
2023/09/14 00:31:38;;;;;;;0.10;0.10;;;;;;;11.56;100.00;97100.72;4991152;28;20057;-78
2023/09/14 00:34:24;;;;;;;0.10;0.10;;;;;;;11.59;100.00;97102.91;5001440;28;20471;-78
2023/09/14 00:37:10;;;;;;;0.10;0.10;;;;;;;11.59;100.00;97100.22;5001594;28;20081;-79
2023/09/14 00:39:56;;;;;;;0.10;0.10;;;;;;;11.50;100.00;97096.28;5001589;28;20065;-79
2023/09/14 00:42:44;;;;;;;0.10;0.10;;;;;;;11.56;100.00;97090.81;5001319;28;20049;-79
2023/09/14 00:45:32;;;;;;;0.10;0.10;;;;;;;11.62;100.00;97099.75;4984698;28;20034;-79
2023/09/14 00:48:18;;;;;;;0.10;0.10;;;;;;;11.66;100.00;97095.53;5003173;28;20797;-79
2023/09/14 00:51:04;;;;;;;0.00;0.00;;;;;;;11.75;100.00;97094.13;4999638;28;20044;-79
2023/09/14 00:53:50;;;;;;;0.10;0.10;;;;;;;11.84;100.00;97087.34;4992034;28;20136;-78
2023/09/14 00:56:36;;;;;;;0.10;0.10;;;;;;;11.91;100.00;97090.69;4998728;28;20528;-79
2023/09/14 00:59:22;;;;;;;0.10;0.10;;;;;;;11.94;100.00;97090.19;5002202;28;20049;-79
2023/09/14 01:02:08;;;;;;;0.10;0.10;;;;;;;11.89;100.00;97092.78;4996089;28;20042;-79
2023/09/14 01:04:54;;;;;;;0.05;0.05;;;;;;;11.73;100.00;97080.94;5000105;28;20041;-79
2023/09/14 01:07:41;;;;;;;0.10;0.10;;;;;;;11.60;100.00;97085.78;4988535;28;20095;-79
2023/09/14 01:10:27;;;;;;;0.10;0.10;;;;;;;11.50;100.00;97090.94;4999450;28;20088;-79
2023/09/14 01:13:29;;;;;;;0.08;0.08;;;;;;;11.45;100.00;97089.00;4999812;28;20045;-79
2023/09/14 01:16:25;;;;;;;0.10;0.10;;;;;;;11.40;100.00;97091.56;4988945;28;20216;-79
2023/09/14 01:19:33;;;;;;;0.10;0.10;;;;;;;11.34;100.00;97093.31;4987183;28;20068;-79
2023/09/14 01:22:28;;;;;;;0.10;0.10;;;;;;;11.06;100.00;97087.94;5003245;28;20033;-78
2023/09/14 01:25:42;;;;;;;0.10;0.10;;;;;;;10.88;100.00;97087.00;5000489;28;20350;-79
2023/09/14 01:28:29;;;;;;;0.10;0.10;;;;;;;10.88;100.00;97095.03;4984624;28;20048;-79
2023/09/14 01:31:14;;;;;;;0.10;0.10;;;;;;;10.81;100.00;97090.84;4999940;28;20078;-79
2023/09/14 01:34:00;;;;;;;0.10;0.10;;;;;;;10.77;100.00;97100.41;4991007;28;20040;-79
2023/09/14 01:36:53;;;;;;;0.10;0.10;;;;;;;10.79;100.00;97095.63;4987788;28;20034;-78
2023/09/14 01:39:40;;;;;;;0.10;0.10;;;;;;;10.84;100.00;97093.91;4985398;28;20092;-78
2023/09/14 01:42:27;;;;;;;0.10;0.10;;;;;;;10.75;100.00;97097.16;5001646;28;20482;-77
2023/09/14 01:45:14;;;;;;;0.20;0.20;;;;;;;10.64;100.00;97088.06;4993514;28;20049;-77
2023/09/14 01:48:00;;;;;;;0.10;0.10;;;;;;;10.64;100.00;97090.75;4984436;28;20302;-78
2023/09/14 01:50:46;;;;;;;0.10;0.10;;;;;;;10.65;100.00;97100.41;4986999;28;20080;-78
2023/09/14 01:53:32;;;;;;;0.10;0.10;;;;;;;10.57;100.00;97098.09;5000245;28;20426;-78
2023/09/14 01:56:18;;;;;;;0.10;0.10;;;;;;;10.46;100.00;97094.38;5000925;28;20507;-77
2023/09/14 01:59:04;;;;;;;0.10;0.10;;;;;;;10.30;100.00;97101.22;4987195;28;20180;-77
2023/09/14 02:01:50;;;;;;;0.10;0.10;;;;;;;10.25;100.00;97105.63;4987363;28;20052;-77
2023/09/14 02:04:36;;;;;;;0.20;0.20;;;;;;;10.12;100.00;97098.59;4987041;28;20092;-78
2023/09/14 02:07:23;;;;;;;0.10;0.10;;;;;;;10.13;100.00;97094.06;4976539;28;20084;-77
2023/09/14 02:10:09;;;;;;;0.05;0.05;;;;;;;10.18;100.00;97102.19;5000056;28;20060;-77
2023/09/14 02:12:56;;;;;;;0.20;0.20;;;;;;;10.26;100.00;97105.38;4988700;28;20042;-77
2023/09/14 02:15:42;;;;;;;0.10;0.10;;;;;;;10.32;100.00;97112.50;4991661;28;20038;-77
2023/09/14 02:18:27;;;;;;;0.17;0.17;;;;;;;10.31;100.00;97108.19;5000458;28;20508;-77
2023/09/14 02:21:16;;;;;;;0.13;0.13;;;;;;;10.29;100.00;97101.44;4999543;28;20037;-78
2023/09/14 02:24:02;;;;;;;0.10;0.10;;;;;;;10.21;100.00;97109.78;5000276;28;20053;-77
2023/09/14 02:26:51;;;;;;;0.10;0.10;;;;;;;10.15;100.00;97108.03;5000287;28;20044;-77
2023/09/14 02:29:37;;;;;;;0.10;0.10;;;;;;;10.09;100.00;97115.09;4993644;28;20491;-77
2023/09/14 02:32:24;;;;;;;0.10;0.10;;;;;;;10.09;100.00;97115.09;5000208;28;20053;-77
2023/09/14 02:35:10;;;;;;;0.10;0.10;;;;;;;10.07;100.00;97114.50;4999831;28;20041;-77
2023/09/14 02:37:56;;;;;;;0.10;0.10;;;;;;;10.06;100.00;97112.88;5001605;28;20129;-77
2023/09/14 02:40:42;;;;;;;0.10;0.10;;;;;;;10.07;100.00;97116.38;4999140;28;20052;-77
2023/09/14 02:43:28;;;;;;;0.10;0.10;;;;;;;9.89;100.00;97118.06;4985909;28;20483;-77
2023/09/14 02:46:14;;;;;;;0.10;0.10;;;;;;;9.92;100.00;97120.28;4987389;28;20540;-77
2023/09/14 02:49:00;;;;;;;0.10;0.10;;;;;;;9.81;100.00;97126.41;4990438;28;20152;-77
2023/09/14 02:51:45;;;;;;;0.10;0.10;;;;;;;9.82;100.00;97121.88;5001689;28;20052;-77
2023/09/14 02:54:31;;;;;;;0.08;0.08;;;;;;;9.85;100.00;97129.44;4990242;28;20830;-77
2023/09/14 02:57:17;;;;;;;0.10;0.10;;;;;;;9.65;100.00;97124.34;5000293;28;20327;-77
2023/09/14 03:00:06;;;;;;;0.10;0.10;;;;;;;9.62;100.00;97122.97;4990385;28;20061;-77
2023/09/14 03:02:52;;;;;;;0.10;0.10;;;;;;;9.56;100.00;97126.53;4976520;28;20323;-77
2023/09/14 03:05:38;;;;;;;0.10;0.10;;;;;;;9.44;100.00;97125.69;4998202;28;20103;-77
2023/09/14 03:08:24;;;;;;;0.10;0.10;;;;;;;9.58;100.00;97124.47;5002352;28;20149;-77
2023/09/14 03:11:09;;;;;;;0.10;0.10;;;;;;;9.64;100.00;97126.22;4998727;28;20041;-77
2023/09/14 03:13:55;;;;;;;0.00;0.00;;;;;;;9.72;100.00;97115.22;5002759;28;20045;-77
2023/09/14 03:16:41;;;;;;;0.20;0.20;;;;;;;9.84;100.00;97125.97;5000545;28;20041;-77
2023/09/14 03:19:28;;;;;;;0.10;0.10;;;;;;;9.81;100.00;97120.25;5002669;28;20038;-77
2023/09/14 03:22:15;;;;;;;0.03;0.03;;;;;;;9.70;100.00;97130.66;4976161;28;20073;-77
2023/09/14 03:25:03;;;;;;;0.10;0.10;;;;;;;9.72;100.00;97128.56;4994773;28;20760;-77
2023/09/14 03:27:49;;;;;;;0.15;0.15;;;;;;;9.71;100.00;97129.63;4986181;28;20077;-77
2023/09/14 03:30:36;;;;;;;0.10;0.10;;;;;;;9.71;100.00;97129.63;4990256;28;20124;-77
2023/09/14 03:33:22;;;;;;;0.10;0.10;;;;;;;9.68;100.00;97124.72;5004072;28;20041;-77
2023/09/14 03:36:08;;;;;;;0.10;0.10;;;;;;;9.69;100.00;97134.38;4989522;28;20099;-77
2023/09/14 03:38:54;;;;;;;0.20;0.20;;;;;;;9.57;100.00;97124.66;4988450;28;20129;-77
2023/09/14 03:41:45;;;;;;;0.10;0.10;;;;;;;9.46;100.00;97140.44;4977586;28;20041;-77
2023/09/14 03:44:30;;;;;;;0.10;0.10;;;;;;;9.45;100.00;97135.31;5000315;28;20588;-78
2023/09/14 03:47:16;;;;;;;0.20;0.20;;;;;;;9.35;100.00;97132.38;4992777;28;20164;-77
2023/09/14 03:50:03;;;;;;;0.10;0.10;;;;;;;9.34;100.00;97136.91;4991977;28;20263;-77
2023/09/14 03:52:49;;;;;;;0.10;0.10;;;;;;;9.28;100.00;97129.78;4992845;28;20132;-78
2023/09/14 03:55:35;;;;;;;0.10;0.10;;;;;;;9.10;100.00;97133.25;5002564;28;20038;-78
2023/09/14 03:58:24;;;;;;;0.10;0.10;;;;;;;9.06;100.00;97129.41;5001614;28;20947;-78
2023/09/14 04:01:10;;;;;;;0.17;0.17;;;;;;;8.85;100.00;97127.97;5000613;28;20041;-78
2023/09/14 04:03:56;;;;;;;0.10;0.10;;;;;;;8.85;100.00;97130.63;4987181;28;20041;-78
2023/09/14 04:06:42;;;;;;;0.10;0.10;;;;;;;8.93;100.00;97126.88;4990181;28;20088;-77
2023/09/14 04:09:29;;;;;;;0.10;0.10;;;;;;;8.93;100.00;97125.00;4991788;28;20037;-78
2023/09/14 04:12:15;;;;;;;0.10;0.10;;;;;;;8.84;100.00;97122.84;5002781;28;20381;-77
2023/09/14 04:15:01;;;;;;;0.10;0.10;;;;;;;8.83;100.00;97124.72;4995125;28;20427;-77
2023/09/14 04:17:47;;;;;;;0.10;0.10;;;;;;;8.96;100.00;97137.13;4992488;28;20399;-77
2023/09/14 04:20:33;;;;;;;0.10;0.10;;;;;;;9.00;100.00;97132.94;4987114;28;20049;-77
2023/09/14 04:23:20;;;;;;;0.10;0.10;;;;;;;9.00;100.00;97137.47;5002231;28;20471;-77
2023/09/14 04:26:06;;;;;;;0.10;0.10;;;;;;;8.97;100.00;97128.06;4988108;28;20080;-77
2023/09/14 04:28:54;;;;;;;0.10;0.10;;;;;;;9.04;100.00;97134.16;4993919;28;20099;-77
2023/09/14 04:31:40;;;;;;;0.10;0.10;;;;;;;9.01;100.00;97139.09;5001016;28;20046;-76
2023/09/14 04:34:27;;;;;;;0.10;0.10;;;;;;;9.05;100.00;97142.97;4991206;28;20141;-76
2023/09/14 04:37:12;;;;;;;0.20;0.20;;;;;;;9.11;100.00;97142.91;4994200;28;20572;-78
2023/09/14 04:39:58;;;;;;;0.10;0.10;;;;;;;8.78;100.00;97137.91;5000235;28;20045;-78
2023/09/14 04:42:44;;;;;;;0.10;0.10;;;;;;;8.80;100.00;97146.53;4991439;28;20042;-78
2023/09/14 04:45:30;;;;;;;0.10;0.10;;;;;;;9.05;100.00;97149.13;4990092;28;20443;-79
2023/09/14 04:48:16;;;;;;;0.10;0.10;;;;;;;9.25;100.00;97148.09;5002514;28;20044;-78
2023/09/14 04:51:02;;;;;;;0.13;0.13;;;;;;;9.43;100.00;97146.22;4991165;28;20033;-78
2023/09/14 04:53:48;;;;;;;0.10;0.10;;;;;;;9.67;100.00;97155.19;4991308;28;20043;-78
2023/09/14 04:56:34;;;;;;;0.10;0.10;;;;;;;9.85;100.00;97151.63;5000660;28;20033;-78
2023/09/14 04:59:20;;;;;;;0.10;0.10;;;;;;;9.78;100.00;97150.91;4996195;28;20103;-78
2023/09/14 05:02:06;;;;;;;0.10;0.10;;;;;;;10.01;100.00;97153.66;5001363;28;20094;-78
2023/09/14 05:04:52;;;;;;;0.10;0.10;;;;;;;10.20;100.00;97146.41;4993888;28;20111;-79
2023/09/14 05:07:39;;;;;;;0.10;0.10;;;;;;;10.36;100.00;97146.81;4987712;28;20118;-78
2023/09/14 05:10:27;;;;;;;0.10;0.10;;;;;;;10.36;100.00;97149.50;4990545;28;20034;-78
2023/09/14 05:13:13;;;;;;;0.10;0.10;;;;;;;10.40;100.00;97153.34;5001200;28;20053;-77
2023/09/14 05:15:59;;;;;;;0.10;0.10;;;;;;;10.50;100.00;97154.38;4993823;28;20073;-78
2023/09/14 05:18:46;;;;;;;0.10;0.10;;;;;;;10.69;100.00;97160.47;4979110;28;20057;-78
2023/09/14 05:21:32;;;;;;;0.10;0.10;;;;;;;10.89;100.00;97160.09;4987747;28;20049;-78
2023/09/14 05:24:18;;;;;;;0.10;0.10;;;;;;;11.08;100.00;97163.50;4992860;28;20077;-78
2023/09/14 05:27:04;;;;;;;0.10;0.10;;;;;;;11.21;100.00;97152.53;4990054;28;20041;-78
2023/09/14 05:29:50;;;;;;;0.10;0.10;;;;;;;11.09;100.00;97160.56;4981131;28;20124;-78
2023/09/14 05:32:38;;;;;;;0.10;0.10;;;;;;;11.24;100.00;97160.09;5001025;28;20458;-78
2023/09/14 05:35:24;;;;;;;0.10;0.10;;;;;;;11.19;100.00;97153.81;4999154;28;20497;-78
2023/09/14 05:38:10;;;;;;;0.10;0.10;;;;;;;11.19;100.00;97149.25;5001541;28;20128;-78
2023/09/14 05:40:56;;;;;;;0.20;0.20;;;;;;;11.15;100.00;97164.19;4991090;28;20040;-80
2023/09/14 05:43:44;;;;;;;0.10;0.10;;;;;;;11.08;100.00;97150.91;4989853;28;20404;-79
2023/09/14 05:46:30;;;;;;;0.10;0.10;;;;;;;11.29;100.00;97159.41;4985222;28;20182;-79
2023/09/14 05:49:16;;;;;;;0.10;0.10;;;;;;;11.33;100.00;97160.53;4990682;28;20072;-79
2023/09/14 05:52:02;;;;;;;0.10;0.10;;;;;;;11.32;100.00;97149.00;4984974;28;20068;-79
2023/09/14 05:54:48;;;;;;;0.10;0.10;;;;;;;11.44;100.00;97147.13;4994331;28;20399;-79
2023/09/14 05:57:34;;;;;;;0.10;0.10;;;;;;;11.43;100.00;97161.56;5000673;28;20461;-81
2023/09/14 06:00:20;;;;;;;0.10;0.10;;;;;;;11.59;100.00;97167.22;4985538;28;20042;-81
2023/09/14 06:03:11;;;;;;;0.10;0.10;;;;;;;11.58;100.00;97152.19;4986656;28;20038;-81
2023/09/14 06:05:57;;;;;;;0.13;0.13;;;;;;;11.68;100.00;97168.50;4990891;28;20184;-81
2023/09/14 06:08:44;;;;;;;0.10;0.10;;;;;;;11.91;100.00;97165.78;4986529;28;20134;-80
2023/09/14 06:11:30;;;;;;;0.10;0.10;;;;;;;12.03;100.00;97168.41;4991051;28;20057;-80
2023/09/14 06:14:16;;;;;;;0.10;0.10;;;;;;;12.12;100.00;97171.50;4990775;28;20107;-80
2023/09/14 06:17:02;;;;;;;0.10;0.10;;;;;;;12.10;100.00;97173.63;4998635;28;21317;-81
2023/09/14 06:19:48;;;;;;;0.10;0.10;;;;;;;12.20;100.00;97179.16;5000430;28;20433;-80
2023/09/14 06:22:34;;;;;;;0.10;0.10;;;;;;;12.37;100.00;97177.31;4999580;28;20037;-80
2023/09/14 06:25:20;;;;;;;0.10;0.10;;;;;;;12.40;100.00;97176.84;4989001;28;20037;-81
2023/09/14 06:28:06;;;;;;;0.10;0.10;;;;;;;12.53;100.00;97184.59;5003061;28;20047;-80
2023/09/14 06:30:52;;;;;;;0.10;0.10;;;;;;;12.63;100.00;97188.50;5000057;28;20045;-81
2023/09/14 06:33:38;;;;;;;0.10;0.10;;;;;;;12.70;100.00;97175.72;5000563;28;20543;-80
2023/09/14 06:36:24;;;;;;;0.10;0.10;;;;;;;12.85;100.00;97185.91;5002538;28;20489;-81
2023/09/14 06:39:12;;;;;;;0.20;0.20;;;;;;;12.97;100.00;97195.47;5000708;28;20045;-80
2023/09/14 06:41:58;;;;;;;0.10;0.10;;;;;;;13.13;100.00;97193.81;5001126;28;20100;-80
2023/09/14 06:44:44;;;;;;;0.10;0.10;;;;;;;13.26;100.00;97185.47;4999622;28;20038;-81
2023/09/14 06:47:29;;;;;;;0.15;0.10;;;;;;;13.02;100.00;97200.94;5001945;28;20385;-80
2023/09/14 06:50:15;;;;;;;0.17;0.17;;;;;;;12.71;100.00;97191.59;5004471;28;20076;-81
2023/09/14 06:53:01;;;;;;;0.10;0.10;;;;;;;12.67;100.00;97198.50;5005376;28;20400;-81
2023/09/14 06:55:47;;;;;;;0.10;0.10;;;;;;;12.85;100.00;97199.31;5004836;28;20080;-80
2023/09/14 06:58:36;;;;;;;0.10;0.10;;;;;;;12.81;100.00;97202.47;5002413;28;20096;-81
2023/09/14 07:01:22;;;;;;;0.10;0.10;;;;;;;12.90;100.00;97200.19;5005945;28;20050;-80
2023/09/14 07:04:07;;;;;;;0.10;0.10;;;;;;;12.92;100.00;97195.41;4992147;28;20132;-81
2023/09/14 07:06:53;;;;;;;0.10;0.10;;;;;;;12.92;100.00;97199.94;5002019;28;20064;-80
2023/09/14 07:09:39;;;;;;;0.10;0.10;;;;;;;12.82;100.00;97205.97;5004593;28;20761;-81
2023/09/14 07:12:25;;;;;;;0.10;0.10;;;;;;;12.80;100.00;97202.72;5001808;28;20148;-81
2023/09/14 07:15:11;;;;;;;0.25;0.25;;;;;;;12.90;100.00;97200.19;5004742;28;20037;-81
2023/09/14 07:17:57;;;;;;;0.20;0.20;;;;;;;12.99;100.00;97209.47;5002857;28;20095;-81
2023/09/14 07:20:42;;;;;;;0.20;0.20;;;;;;;13.05;100.00;97211.19;4990078;28;20073;-81
2023/09/14 07:23:30;;;;;;;0.10;0.10;;;;;;;13.06;100.00;97212.81;5005842;28;20034;-80
2023/09/14 07:26:16;;;;;;;0.10;0.10;;;;;;;13.00;100.00;97213.00;5005507;28;20041;-80
2023/09/14 07:29:02;;;;;;;0.13;0.13;;;;;;;13.29;100.00;97221.75;5007401;28;20036;-81
2023/09/14 07:31:48;;;;;;;0.10;0.10;;;;;;;13.63;100.00;97215.25;5003637;28;20177;-82
2023/09/14 07:34:34;;;;;;;0.10;0.10;;;;;;;13.57;100.00;97215.44;5004522;28;20111;-81
2023/09/14 07:37:19;;;;;;;0.25;0.25;;;;;;;13.55;100.00;97218.38;5003730;28;20037;-81
2023/09/14 07:40:06;;;;;;;0.20;0.20;;;;;;;13.80;100.00;97212.50;5004371;28;20117;-81
2023/09/14 07:42:52;;;;;;;0.15;0.15;;;;;;;13.87;100.00;97215.81;5003994;28;20115;-81
2023/09/14 07:45:38;;;;;;;0.20;0.20;;;;;;;13.91;100.00;97216.94;5004928;28;20056;-81
2023/09/14 07:48:24;;;;;;;0.10;0.10;;;;;;;14.27;100.00;97221.91;5005293;28;20130;-81
2023/09/14 07:51:10;;;;;;;0.20;0.20;;;;;;;14.55;100.00;97227.06;5005111;28;20041;-81
2023/09/14 07:53:55;;;;;;;0.10;0.10;;;;;;;14.42;100.00;97222.88;5002210;28;20571;-82
2023/09/14 07:56:42;;;;;;;0.10;0.10;;;;;;;14.66;100.00;97225.28;5001553;28;20072;-81
2023/09/14 07:59:28;;;;;;;0.10;0.10;;;;;;;15.09;100.00;97229.66;5003826;28;20069;-81
2023/09/14 08:02:14;;;;;;;0.10;0.10;;;;;;;15.00;100.00;97228.53;4992407;28;20049;-80
2023/09/14 08:05:00;;;;;;;0.10;0.10;;;;;;;15.24;100.00;97231.66;5002105;28;20051;-81
2023/09/14 08:07:46;;;;;;;0.10;0.10;;;;;;;15.46;100.00;97228.84;5002427;28;20041;-81
2023/09/14 08:10:32;;;;;;;0.10;0.10;;;;;;;15.72;100.00;97222.56;5001941;28;20049;-81
2023/09/14 08:13:19;;;;;;;0.10;0.10;;;;;;;16.03;100.00;97217.25;5001752;28;20150;-81
2023/09/14 08:16:05;;;;;;;0.17;0.15;;;;;;;16.19;100.00;97210.88;5003079;28;20081;-81
2023/09/14 08:18:52;;;;;;;0.10;0.10;;;;;;;16.34;100.00;97210.91;4986315;28;20523;-80
2023/09/14 08:21:38;;;;;;;0.20;0.20;;;;;;;16.63;100.00;97207.69;5001589;28;20606;-82
2023/09/14 08:24:23;;;;;;;0.10;0.10;;;;;;;16.60;100.00;97213.63;5000449;28;20042;-82
2023/09/14 08:27:12;;;;;;;0.10;0.10;;;;;;;17.02;100.00;97215.28;5002633;28;20128;-81
2023/09/14 08:29:58;;;;;;;0.10;0.10;;;;;;;16.72;100.00;97225.00;5003270;28;20279;-82
2023/09/14 08:32:43;;;;;;;0.15;0.15;;;;;;;17.04;100.00;97222.03;4990419;28;20136;-80
2023/09/14 08:35:31;;;;;;;0.10;0.10;;;;;;;17.11;100.00;97228.00;5000981;28;20065;-81
2023/09/14 08:38:17;;;;;;;0.10;0.10;;;;;;;17.24;100.00;97230.16;5002232;28;20041;-81
2023/09/14 08:41:16;;;;;;;0.10;0.10;;;;;;;17.22;100.00;97236.94;5004723;28;20217;-81
2023/09/14 08:44:04;;;;;;;0.10;0.10;;;;;;;17.09;100.00;97237.47;5001039;28;20041;-80
2023/09/14 08:46:53;;;;;;;0.10;0.10;;;;;;;16.90;100.00;97237.22;5003191;28;20061;-82
2023/09/14 08:49:42;;;;;;;0.10;0.10;;;;;;;16.84;100.00;97233.69;5002354;28;20547;-81
2023/09/14 08:52:28;;;;;;;0.10;0.10;;;;;;;16.98;100.00;97228.56;5003235;28;20085;-81
2023/09/14 08:55:16;;;;;;;0.15;0.15;;;;;;;17.25;100.00;97230.97;4991002;28;20081;-80
2023/09/14 08:58:03;;;;;;;0.10;0.10;;;;;;;17.35;100.00;97228.22;5006016;28;20037;-81
2023/09/14 09:00:50;;;;;;;0.10;0.10;;;;;;;17.46;100.00;97219.03;5004050;28;20119;-81
2023/09/14 09:03:36;;;;;;;0.20;0.20;;;;;;;17.61;100.00;97229.00;5000481;28;20041;-81
2023/09/14 09:06:22;;;;;;;0.10;0.10;;;;;;;17.65;100.00;97226.56;5002508;28;20038;-81
2023/09/14 09:09:13;;;;;;;0.10;0.10;;;;;;;18.08;100.00;97225.91;5003696;28;20642;-81
2023/09/14 09:11:59;;;;;;;0.20;0.20;;;;;;;18.20;100.00;97225.56;5001283;28;20050;-80
2023/09/14 09:14:47;;;;;;;0.10;0.10;;;;;;;18.17;100.00;97217.19;5001243;28;20567;-81
2023/09/14 09:17:38;;;;;;;0.10;0.10;;;;;;;17.90;100.00;97223.81;5002541;28;20044;-81
2023/09/14 09:20:24;;;;;;;0.10;0.10;;;;;;;17.67;100.00;97229.81;4993054;28;20036;-80
2023/09/14 09:23:17;;;;;;;0.20;0.20;;;;;;;18.33;100.00;97227.66;5000729;28;20472;-81
2023/09/14 09:26:03;;;;;;;0.20;0.20;;;;;;;18.76;99.96;97225.28;4974742;28;20034;-80
2023/09/14 09:28:49;;;;;;;0.20;0.20;;;;;;;18.69;98.06;97223.97;5001776;28;20045;-80
2023/09/14 09:31:45;;;;;;;0.10;0.10;;;;;;;18.71;97.08;97229.91;4999179;28;20046;-80
2023/09/14 09:34:33;;;;;;;0.20;0.20;;;;;;;18.74;98.25;97222.00;4999235;28;20041;-80
2023/09/14 09:37:19;;;;;;;0.13;0.13;;;;;;;18.82;98.01;97231.44;4999845;28;20125;-80
2023/09/14 09:40:11;;;;;;;0.10;0.10;;;;;;;18.89;97.27;97226.50;5001958;28;20607;-79
2023/09/14 09:43:02;;;;;;;0.10;0.10;;;;;;;19.06;97.90;97221.47;5001453;28;20108;-80
2023/09/14 09:45:48;;;;;;;0.10;0.10;;;;;;;19.27;96.63;97227.56;5000314;28;20033;-80
2023/09/14 09:48:34;;;;;;;0.10;0.10;;;;;;;19.40;95.21;97224.19;5000355;28;20034;-80
2023/09/14 09:51:22;;;;;;;0.10;0.10;;;;;;;19.46;92.42;97222.22;5001827;28;20624;-80
2023/09/14 09:54:07;;;;;;;0.20;0.20;;;;;;;19.48;92.11;97220.03;5000067;28;20279;-80
2023/09/14 09:56:53;;;;;;;0.10;0.10;;;;;;;19.68;92.81;97222.53;4999883;28;20433;-80
2023/09/14 09:59:39;;;;;;;0.10;0.10;;;;;;;19.92;91.63;97225.28;5003842;28;20064;-80
2023/09/14 10:02:32;;;;;;;0.17;0.17;;;;;;;20.10;92.30;97220.97;5001213;28;20325;-79
2023/09/14 10:05:29;;;;;;;0.10;0.10;;;;;;;20.17;87.54;97218.72;4999589;28;20489;-80
2023/09/14 10:08:21;;;;;;;0.10;0.10;;;;;;;19.93;90.78;97215.22;4987258;28;20038;-80
2023/09/14 10:11:07;;;;;;;0.17;0.17;;;;;;;20.15;92.88;97203.78;4986467;28;20034;-81
2023/09/14 10:13:55;;;;;;;0.20;0.20;;;;;;;20.14;88.72;97213.84;5001382;28;20045;-80
2023/09/14 10:16:43;;;;;;;0.20;0.20;;;;;;;20.01;90.38;97218.09;5001422;28;20053;-79
2023/09/14 10:19:29;;;;;;;0.10;0.10;;;;;;;19.65;94.49;97217.69;5002867;28;20050;-80
2023/09/14 10:22:17;;;;;;;0.15;0.15;;;;;;;19.92;89.51;97216.28;5002221;28;20768;-80
2023/09/14 10:25:08;;;;;;;0.20;0.20;;;;;;;21.44;85.17;97207.03;5005806;28;20034;-80
2023/09/14 10:27:54;;;;;;;0.20;0.20;;;;;;;21.15;82.28;97210.75;5004499;28;20042;-80
2023/09/14 10:30:42;;;;;;;0.20;0.20;;;;;;;20.82;87.39;97205.31;4987234;28;20057;-80
2023/09/14 10:33:28;;;;;;;0.17;0.17;;;;;;;21.14;85.33;97207.22;5005456;28;20042;-80
2023/09/14 10:36:15;;;;;;;0.10;0.10;;;;;;;21.68;84.23;97196.75;5004455;28;20236;-81
2023/09/14 10:39:01;;;;;;;0.30;0.30;;;;;;;22.96;76.48;97201.13;5005709;28;20158;-81
2023/09/14 10:41:47;;;;;;;0.10;0.10;;;;;;;26.91;52.58;97196.09;5002785;28;20365;-81
2023/09/14 10:44:33;;;;;;;0.20;0.20;;;;;;;29.85;40.93;97184.78;5003016;28;20775;-80
2023/09/14 10:47:23;;;;;;;0.10;0.10;;;;;;;27.98;44.89;97194.34;5003737;28;20558;-81
2023/09/14 10:50:10;;;;;;;0.20;0.20;;;;;;;23.61;61.81;97200.56;5004040;28;20510;-82
2023/09/14 10:52:56;;;;;;;0.20;0.20;;;;;;;22.57;75.72;97200.91;5001234;28;20442;-81
2023/09/14 10:55:42;;;;;;;0.10;0.10;;;;;;;22.42;73.03;97197.44;5005243;28;20037;-81
2023/09/14 10:58:49;;;;;;;0.10;0.10;;;;;;;22.06;73.63;97194.63;5004565;28;20141;-81
2023/09/14 11:01:46;;;;;;;0.10;0.10;;;;;;;22.99;67.43;97184.09;5002726;28;20053;-81
2023/09/14 11:04:32;;;;;;;0.10;0.10;;;;;;;23.60;67.43;97179.81;5003644;28;20052;-80
2023/09/14 11:07:53;;;;;;;0.20;0.20;;;;;;;29.93;39.25;97175.50;5003741;28;20404;-82
2023/09/14 11:10:52;;;;;;;0.30;0.30;;;;;;;32.75;31.17;97167.84;5000500;28;20108;-81
2023/09/14 11:13:38;;;;;;;0.10;0.10;;;;;;;29.36;37.15;97169.34;5003621;28;20137;-81
2023/09/14 11:16:25;;;;;;;0.10;0.10;;;;;;;26.23;50.34;97172.72;4991869;28;20351;-81
2023/09/14 11:19:37;;;;;;;0.10;0.10;;;;;;;23.02;57.86;97186.19;5003317;28;20049;-81
2023/09/14 11:22:25;;;;;;;0.10;0.10;;;;;;;24.34;51.81;97178.28;5003055;28;20930;-81
2023/09/14 11:25:25;;;;;;;0.30;0.30;;;;;;;29.73;39.70;97174.66;5002951;28;20042;-80
2023/09/14 11:28:20;;;;;;;0.10;0.10;;;;;;;33.59;29.76;97157.34;5003782;28;20179;-81
2023/09/14 11:31:06;;;;;;;0.20;0.20;;;;;;;36.11;26.57;97159.69;5002129;28;20053;-82
2023/09/14 11:33:52;;;;;;;0.13;0.13;;;;;;;39.02;24.30;97156.25;5002919;28;20046;-81
2023/09/14 11:36:38;;;;;;;0.10;0.10;;;;;;;38.14;24.47;97154.00;5002693;28;20037;-82
2023/09/14 11:39:25;;;;;;;0.10;0.10;;;;;;;33.57;28.23;97152.16;5002988;28;20088;-81
2023/09/14 11:42:11;;;;;;;0.10;0.10;;;;;;;28.94;34.88;97165.41;5002828;28;20551;-82
2023/09/14 11:44:59;;;;;;;0.10;0.10;;;;;;;27.05;36.36;97173.88;5000838;28;20041;-81
2023/09/14 11:47:45;;;;;;;0.10;0.10;;;;;;;25.32;52.62;97169.38;5003603;28;20563;-81
2023/09/14 11:50:33;;;;;;;0.10;0.10;;;;;;;24.98;53.67;97171.03;5002776;28;20632;-82
2023/09/14 11:53:21;;;;;;;0.08;0.08;;;;;;;24.77;55.02;97163.81;5003773;28;20396;-81
2023/09/14 11:56:08;;;;;;;0.10;0.10;;;;;;;23.83;62.89;97172.34;5001558;28;20558;-82
2023/09/14 11:58:58;;;;;;;0.00;0.00;;;;;;;22.85;70.97;97167.00;5000700;28;20050;-80
2023/09/14 12:01:44;;;;;;;0.00;0.00;;;;;;;23.08;70.81;97173.25;4989944;28;20049;-81
2023/09/14 12:04:31;;;;;;;0.10;0.10;;;;;;;22.49;73.29;97159.66;5003607;28;20038;-80
2023/09/14 12:07:16;;;;;;;0.20;0.20;;;;;;;25.63;56.42;97166.38;4994386;28;20045;-80
2023/09/14 12:10:16;;;;;;;0.20;0.20;;;;;;;31.13;34.88;97149.00;5004381;28;20479;-81
2023/09/14 12:13:16;;;;;;;0.10;0.10;;;;;;;30.62;36.01;97153.84;5002553;28;20371;-81
2023/09/14 12:16:03;;;;;;;0.10;0.10;;;;;;;27.07;45.57;97154.31;5002965;28;20088;-80
2023/09/14 12:18:49;;;;;;;0.10;0.10;;;;;;;26.07;52.24;97156.03;5002592;28;20057;-80
2023/09/14 12:21:35;;;;;;;0.05;0.05;;;;;;;25.56;54.03;97168.81;5001282;28;20292;-80
2023/09/14 12:24:24;;;;;;;0.10;0.10;;;;;;;24.48;56.72;97165.25;5003167;28;20041;-80
2023/09/14 12:27:10;;;;;;;0.10;0.10;;;;;;;24.19;65.25;97158.44;5003901;28;20431;-81
2023/09/14 12:29:57;;;;;;;0.10;0.10;;;;;;;24.18;59.72;97158.75;5003760;28;20335;-81
2023/09/14 12:32:43;;;;;;;0.10;0.10;;;;;;;24.23;62.60;97163.28;5002643;28;20037;-79
2023/09/14 12:35:30;;;;;;;0.10;0.10;;;;;;;23.73;64.60;97158.97;5001135;28;20391;-80
2023/09/14 12:38:16;;;;;;;0.10;0.10;;;;;;;23.93;61.80;97157.59;5005022;28;20045;-80
2023/09/14 12:41:05;;;;;;;0.10;0.10;;;;;;;24.13;59.74;97159.72;5002285;28;20483;-80
2023/09/14 12:43:51;;;;;;;0.10;0.10;;;;;;;24.26;57.44;97157.97;5003690;28;20042;-80
2023/09/14 12:46:37;;;;;;;0.10;0.10;;;;;;;24.44;54.08;97151.44;5003715;28;20064;-80
2023/09/14 12:49:25;;;;;;;0.10;0.10;;;;;;;23.75;60.00;97153.19;5003573;28;20090;-79
2023/09/14 12:52:12;;;;;;;0.30;0.30;;;;;;;29.03;45.76;97146.78;5002261;28;20041;-80
2023/09/14 12:55:11;;;;;;;0.30;0.30;;;;;;;36.38;26.93;97135.03;5001192;28;20081;-80
2023/09/14 12:57:57;;;;;;;0.10;0.10;;;;;;;37.48;24.24;97128.19;5002050;28;20053;-80
2023/09/14 13:00:45;;;;;;;0.10;0.10;;;;;;;37.81;25.24;97132.31;5002296;28;20053;-80
2023/09/14 13:03:32;;;;;;;0.00;0.00;;;;;;;35.71;25.10;97129.06;4992662;28;20428;-80